Time;durP1;ratioP1;P1;durP2;ratioP2;P2;SDS_P1;SDS_P2;PMS_P1;PMS_P2;Temp;Humidity;BMP_temperature;BMP_pressure;BME280_temperature;BME280_humidity;BME280_pressure;Samples;Min_cycle;Max_cycle;Signal;HPM_P1;HPM_P2
2022/01/16 00:04:11;;;;;;;;;58.75;47.50;;;;;3.00;100.00;102211.88;5058125;28;11562;-71
2022/01/16 00:06:45;;;;;;;;;50.75;44.00;;;;;2.99;100.00;102208.34;5058552;28;11580;-70
2022/01/16 00:09:12;;;;;;;;;53.50;45.25;;;;;3.02;100.00;102204.59;5072250;28;11633;-70
2022/01/16 00:11:39;;;;;;;;;53.25;44.25;;;;;3.03;100.00;102207.16;5072250;28;11729;-71
2022/01/16 00:14:06;;;;;;;;;51.75;42.25;;;;;3.05;100.00;102212.41;5057693;28;11586;-70
2022/01/16 00:16:33;;;;;;;;;54.50;44.50;;;;;3.05;100.00;102207.91;5056905;28;11594;-70
2022/01/16 00:19:00;;;;;;;;;58.75;45.25;;;;;3.09;100.00;102206.72;5057420;28;11645;-70
2022/01/16 00:21:33;;;;;;;;;45.00;38.00;;;;;3.12;100.00;102197.63;5056002;28;11583;-71
2022/01/16 00:24:00;;;;;;;;;40.25;38.00;;;;;3.16;100.00;102199.13;5056848;28;11595;-70
2022/01/16 00:26:26;;;;;;;;;44.75;39.50;;;;;3.16;100.00;102207.16;5073649;28;11605;-70
2022/01/16 00:28:54;;;;;;;;;40.25;37.00;;;;;3.18;100.00;102202.56;5058732;28;11551;-69
2022/01/16 00:31:22;;;;;;;;;46.75;36.50;;;;;3.24;100.00;102201.28;5062137;28;11554;-70
2022/01/16 00:33:50;;;;;;;;;56.25;45.00;;;;;3.22;100.00;102190.69;5060794;28;11623;-72
2022/01/16 00:36:19;;;;;;;;;56.50;44.00;;;;;3.23;100.00;102197.75;5060442;28;11576;-69
2022/01/16 00:38:47;;;;;;;;;41.00;33.25;;;;;3.30;100.00;102198.16;5060809;28;11561;-69
2022/01/16 00:41:16;;;;;;;;;51.25;42.00;;;;;3.28;100.00;102195.59;5061950;28;11597;-69
2022/01/16 00:43:42;;;;;;;;;48.00;40.50;;;;;3.31;100.00;102202.56;5059234;28;11651;-70
2022/01/16 00:46:09;;;;;;;;;48.00;42.50;;;;;3.31;100.00;102208.75;5061125;28;12269;-69
2022/01/16 00:48:36;;;;;;;;;49.25;42.25;;;;;3.33;100.00;102209.50;5062138;28;11568;-70
2022/01/16 00:51:04;;;;;;;;;43.25;34.00;;;;;3.32;100.00;102210.47;5061531;28;11684;-69
2022/01/16 00:53:31;;;;;;;;;47.25;39.00;;;;;3.34;100.00;102202.34;5057771;28;11615;-69
2022/01/16 00:55:58;;;;;;;;;62.50;46.00;;;;;3.30;100.00;102174.94;5060714;28;11587;-70
2022/01/16 00:58:25;;;;;;;;;48.00;37.00;;;;;3.37;100.00;102180.69;5061141;28;11576;-70
2022/01/16 01:00:52;;;;;;;;;49.50;42.25;;;;;3.37;100.00;102183.38;5076803;28;11584;-70
2022/01/16 01:03:19;;;;;;;;;46.75;40.75;;;;;3.37;100.00;102153.94;5066049;28;11606;-70
2022/01/16 01:05:45;;;;;;;;;66.50;48.25;;;;;3.35;100.00;102150.50;5058541;28;11718;-70
2022/01/16 01:08:12;;;;;;;;;64.50;51.00;;;;;3.33;100.00;102155.13;5058380;28;11246;-70
2022/01/16 01:10:39;;;;;;;;;64.25;46.00;;;;;3.34;100.00;102162.19;5078622;28;11700;-70
2022/01/16 01:13:10;;;;;;;;;62.00;44.25;;;;;3.37;100.00;102161.97;5061542;28;15330;-69
2022/01/16 01:15:47;;;;;;;;;67.75;51.25;;;;;3.30;100.00;102180.28;5061126;28;11562;-70
2022/01/16 01:18:15;;;;;;;;;53.50;45.75;;;;;3.34;100.00;102186.28;5058516;28;11648;-70
2022/01/16 01:20:44;;;;;;;;;60.50;49.25;;;;;3.31;100.00;102176.66;5073772;28;11572;-70
2022/01/16 01:23:11;;;;;;;;;68.50;50.50;;;;;3.29;100.00;102178.56;5061828;28;11566;-70
2022/01/16 01:25:40;;;;;;;;;62.00;49.75;;;;;3.28;100.00;102171.50;5060130;28;11650;-69
2022/01/16 01:28:09;;;;;;;;;56.00;46.75;;;;;3.26;100.00;102169.91;5059986;28;11656;-70
2022/01/16 01:30:37;;;;;;;;;60.00;47.75;;;;;3.31;100.00;102154.38;5058860;28;11643;-69
2022/01/16 01:33:04;;;;;;;;;66.50;49.50;;;;;3.30;100.00;102180.28;5059012;28;11588;-70
2022/01/16 01:35:38;;;;;;;;;63.75;46.25;;;;;3.29;100.00;102183.94;5067015;28;11560;-70
2022/01/16 01:38:06;;;;;;;;;66.00;51.75;;;;;3.31;100.00;102187.34;5059573;28;11644;-70
2022/01/16 01:40:33;;;;;;;;;66.75;47.25;;;;;3.30;100.00;102176.75;5058785;28;11569;-69
2022/01/16 01:51:00;;;;;;;;;64.50;47.75;;;;;3.35;100.00;102134.44;5058594;28;11584;-70
2022/01/16 01:51:32;;;;;;;;;70.00;47.25;;;;;3.37;100.00;102098.56;5059995;28;11689;-70
2022/01/16 01:54:00;;;;;;;;;68.00;47.75;;;;;3.35;100.00;102097.84;5060908;28;11607;-70
2022/01/16 01:56:27;;;;;;;;;51.50;43.50;;;;;3.39;100.00;102119.88;5075284;28;11650;-69
2022/01/16 01:58:56;;;;;;;;;58.50;44.25;;;;;3.36;100.00;102129.00;5059394;28;11682;-69
2022/01/16 02:01:24;;;;;;;;;64.25;49.00;;;;;3.37;100.00;102144.09;5059713;28;11595;-69
2022/01/16 02:03:51;;;;;;;;;65.00;51.25;;;;;3.36;100.00;102157.56;5059213;28;12380;-70
2022/01/16 02:06:26;;;;;;;;;65.25;49.75;;;;;3.33;100.00;102155.13;5058755;28;11584;-70
2022/01/16 02:08:55;;;;;;;;;61.00;50.75;;;;;3.33;100.00;102163.16;5064325;28;12277;-71
2022/01/16 02:11:27;;;;;;;;;58.50;45.50;;;;;3.37;100.00;102162.81;5058181;28;11554;-70
2022/01/16 02:14:26;;;;;;;;;49.00;42.25;;;;;3.40;100.00;102185.84;5057954;28;11654;-70
2022/01/16 02:28:24;;;;;;;;;51.00;40.50;;;;;3.48;100.00;102179.94;5057419;28;11510;-70
2022/01/16 02:36:25;;;;;;;;;55.00;46.00;;;;;3.54;100.00;102177.69;5058910;28;11614;-69
2022/01/16 02:38:56;;;;;;;;;53.25;44.50;;;;;3.54;100.00;102180.34;5057428;28;11642;-70
2022/01/16 02:41:24;;;;;;;;;42.50;42.25;;;;;3.57;100.00;102165.88;5058986;28;11571;-70
2022/01/16 02:43:51;;;;;;;;;63.50;48.00;;;;;3.56;100.00;102170.38;5058435;28;11538;-71
2022/01/16 02:48:49;;;;;;;;;64.75;46.50;;;;;3.64;100.00;102162.66;5056610;28;11654;-70
2022/01/16 02:51:20;;;;;;;;;63.75;49.00;;;;;3.63;100.00;102168.13;5058837;28;11635;-69
2022/01/16 02:53:48;;;;;;;;;68.00;47.00;;;;;3.68;100.00;102149.88;5057291;28;11658;-70
2022/01/16 02:56:16;;;;;;;;;65.00;52.00;;;;;3.67;100.00;102150.84;5059115;28;11565;-70
2022/01/16 02:58:44;;;;;;;;;66.75;51.75;;;;;3.66;100.00;102144.63;5058176;28;11617;-71
2022/01/16 03:01:12;;;;;;;;;63.50;49.00;;;;;3.70;100.00;102145.25;5074939;28;11588;-70
2022/01/16 03:03:40;;;;;;;;;63.50;49.00;;;;;3.70;100.00;102142.59;5059078;28;11561;-70
2022/01/16 03:06:06;;;;;;;;;67.25;49.25;;;;;3.73;100.00;102139.72;5060091;28;11644;-70
2022/01/16 03:08:33;;;;;;;;;64.00;46.25;;;;;3.74;100.00;102136.06;5060386;28;11542;-70
2022/01/16 03:11:13;;;;;;;;;51.50;43.50;;;;;3.75;100.00;102137.78;5061987;28;11675;-70
2022/01/16 03:13:47;;;;;;;;;65.50;50.25;;;;;3.77;100.00;102132.31;5072054;28;11587;-70
2022/01/16 03:16:16;;;;;;;;;69.25;51.75;;;;;3.75;100.00;102139.59;5061608;28;11541;-70
2022/01/16 03:24:14;;;;;;;;;63.50;51.00;;;;;3.79;100.00;102115.16;5059073;28;11566;-71
2022/01/16 03:26:40;;;;;;;;;72.25;56.25;;;;;3.81;100.00;102117.72;5059525;28;11623;-69
2022/01/16 03:29:07;;;;;;;;;62.25;49.00;;;;;3.83;100.00;102107.72;5059411;28;11573;-69
2022/01/16 03:31:35;;;;;;;;;69.50;53.25;;;;;3.85;100.00;102113.84;5058991;28;11562;-69
2022/01/16 03:34:01;;;;;;;;;68.75;51.50;;;;;3.86;100.00;102105.69;5058118;28;11552;-69
2022/01/16 03:36:28;;;;;;;;;63.25;50.00;;;;;3.87;100.00;102095.81;5058446;28;11718;-70
2022/01/16 03:38:54;;;;;;;;;60.75;49.00;;;;;3.88;100.00;102098.38;5073883;28;12311;-69
2022/01/16 03:41:21;;;;;;;;;46.00;38.75;;;;;3.91;100.00;102089.25;5057449;28;11571;-68
2022/01/16 03:43:48;;;;;;;;;64.00;48.50;;;;;3.91;100.00;102078.53;5061062;28;11631;-71
2022/01/16 03:46:14;;;;;;;;;45.75;40.25;;;;;3.93;100.00;102081.97;5060033;28;11571;-69
2022/01/16 03:48:41;;;;;;;;;58.25;46.50;;;;;3.91;100.00;102086.56;5058146;28;12479;-70
2022/01/16 03:51:07;;;;;;;;;61.25;49.25;;;;;3.92;100.00;102090.97;5059445;28;11567;-68
2022/01/16 03:53:34;;;;;;;;;62.00;44.00;;;;;3.93;100.00;102081.97;5059202;28;11644;-68
2022/01/16 03:56:00;;;;;;;;;54.00;44.75;;;;;3.93;100.00;102085.50;5073376;28;11687;-71
2022/01/16 03:58:26;;;;;;;;;46.25;42.25;;;;;3.95;100.00;102090.72;5074372;28;11514;-70
2022/01/16 04:00:53;;;;;;;;;53.75;42.75;;;;;3.93;100.00;102098.03;5059738;28;11562;-70
2022/01/16 04:03:19;;;;;;;;;36.75;31.50;;;;;3.95;100.00;102099.63;5073966;28;12310;-69
2022/01/16 04:05:46;;;;;;;;;46.25;38.25;;;;;3.95;100.00;102098.78;5062523;28;11708;-68
2022/01/16 04:08:12;;;;;;;;;56.75;44.00;;;;;3.95;100.00;102088.06;5061263;28;11562;-70
2022/01/16 04:10:39;;;;;;;;;50.00;43.75;;;;;3.96;100.00;102101.31;5061312;28;11676;-69
2022/01/16 04:13:07;;;;;;;;;56.25;43.00;;;;;3.98;100.00;102095.88;5062796;28;11536;-69
2022/01/16 04:15:34;;;;;;;;;63.00;46.50;;;;;3.97;100.00;102091.50;5062599;28;11565;-69
2022/01/16 04:18:03;;;;;;;;;50.00;42.25;;;;;3.94;100.00;102083.66;5060363;28;11610;-68
2022/01/16 04:20:30;;;;;;;;;53.25;43.00;;;;;3.92;100.00;102086.47;5063075;28;11648;-69
2022/01/16 04:22:56;;;;;;;;;56.25;44.50;;;;;3.91;100.00;102086.56;5064137;28;11615;-68
2022/01/16 04:25:23;;;;;;;;;56.25;44.75;;;;;3.89;100.00;102075.97;5062016;28;11585;-70
2022/01/16 04:27:49;;;;;;;;;55.25;45.75;;;;;3.84;100.00;102078.16;5061803;28;11586;-70
2022/01/16 04:30:16;;;;;;;;;46.75;41.50;;;;;3.85;100.00;102076.31;5063120;28;11705;-69
2022/01/16 04:32:42;;;;;;;;;54.50;43.75;;;;;3.86;100.00;102084.25;5061254;28;11618;-68
2022/01/16 04:35:10;;;;;;;;;48.00;41.50;;;;;3.86;100.00;102089.59;5067471;28;11633;-69
2022/01/16 04:37:36;;;;;;;;;41.25;31.00;;;;;3.84;100.00;102079.97;5061230;28;11541;-69
2022/01/16 04:40:23;;;;;;;;;53.75;37.00;;;;;3.83;100.00;102068.41;5061307;28;11630;-69
2022/01/16 04:45:35;;;;;;;;;47.75;44.25;;;;;3.78;100.00;102075.94;5059976;28;11641;-68
2022/01/16 04:48:03;;;;;;;;;58.25;44.75;;;;;3.76;100.00;102067.16;5060783;28;11556;-69
2022/01/16 04:50:30;;;;;;;;;57.75;46.25;;;;;3.76;100.00;102067.16;5061430;28;11586;-71
2022/01/16 04:52:56;;;;;;;;;46.25;40.25;;;;;3.78;100.00;102073.25;5061525;28;11661;-69
2022/01/16 04:55:24;;;;;;;;;44.25;37.25;;;;;3.79;100.00;102079.47;5066974;28;11664;-69
2022/01/16 04:57:51;;;;;;;;;46.50;39.50;;;;;3.80;100.00;102079.34;5060395;28;11677;-69
2022/01/16 05:00:18;;;;;;;;;45.00;41.00;;;;;3.80;100.00;102081.19;5064912;28;11549;-68
2022/01/16 05:02:44;;;;;;;;;57.25;40.75;;;;;3.82;100.00;102074.75;5063933;28;11567;-71
2022/01/16 05:05:11;;;;;;;;;56.50;42.50;;;;;3.83;100.00;102071.09;5061243;28;11594;-69
2022/01/16 05:07:37;;;;;;;;;36.25;31.25;;;;;3.83;100.00;102068.41;5061378;28;11553;-69
2022/01/16 05:10:06;;;;;;;;;34.00;30.50;;;;;3.85;100.00;102070.97;5061939;28;11568;-68
2022/01/16 05:12:37;;;;;;;;;45.00;42.50;;;;;3.85;100.00;102061.13;5061941;28;11572;-69
2022/01/16 05:17:51;;;;;;;;;53.50;41.25;;;;;3.90;100.00;102058.09;5062443;28;12221;-69
2022/01/16 05:20:18;;;;;;;;;49.00;40.25;;;;;3.88;100.00;102057.34;5060037;28;11601;-68
2022/01/16 05:22:45;;;;;;;;;47.00;36.25;;;;;3.88;100.00;102063.56;5062546;28;11630;-71
2022/01/16 05:25:14;;;;;;;;;45.75;38.25;;;;;3.88;100.00;102062.69;5059369;28;11628;-68
2022/01/16 05:27:41;;;;;;;;;50.00;43.00;;;;;3.88;100.00;102052.00;5063167;28;11676;-69
2022/01/16 05:30:08;;;;;;;;;48.25;41.50;;;;;3.90;100.00;102066.13;5059732;28;11577;-69
2022/01/16 05:32:34;;;;;;;;;56.50;42.25;;;;;3.89;100.00;102075.13;5059614;28;11582;-69
2022/01/16 05:35:06;;;;;;;;;38.00;31.25;;;;;3.89;100.00;102070.63;5061396;28;11631;-69
2022/01/16 05:37:33;;;;;;;;;54.25;39.25;;;;;3.86;100.00;102078.91;5062618;28;11668;-68
2022/01/16 05:40:00;;;;;;;;;43.75;33.00;;;;;3.89;100.00;102075.97;5059957;28;11580;-70
2022/01/16 05:42:26;;;;;;;;;44.25;38.00;;;;;3.88;100.00;102089.50;5059210;28;11581;-68
2022/01/16 05:44:53;;;;;;;;;47.75;43.75;;;;;3.87;100.00;102079.75;5059203;28;12285;-69
2022/01/16 05:47:19;;;;;;;;;50.75;44.25;;;;;3.87;100.00;102080.59;5076974;28;11571;-68
2022/01/16 05:49:46;;;;;;;;;56.25;43.00;;;;;3.85;100.00;102077.19;5061484;28;11608;-70
2022/01/16 05:52:32;;;;;;;;;55.75;43.50;;;;;3.83;100.00;102071.09;5058888;28;11580;-69
2022/01/16 05:54:58;;;;;;;;;39.25;30.50;;;;;3.86;100.00;102075.34;5059758;28;11558;-69
2022/01/16 05:57:25;;;;;;;;;38.00;31.00;;;;;3.85;100.00;102081.69;5058996;28;11710;-69
2022/01/16 05:59:52;;;;;;;;;35.00;31.50;;;;;3.87;100.00;102075.25;5059339;28;11683;-68
2022/01/16 06:02:18;;;;;;;;;40.00;38.00;;;;;3.88;100.00;102073.41;5059265;28;11586;-69
2022/01/16 06:04:44;;;;;;;;;43.75;40.25;;;;;3.86;100.00;102070.84;5059749;28;11566;-68
2022/01/16 06:07:12;;;;;;;;;41.25;37.75;;;;;3.88;100.00;102068.06;5059755;28;11607;-69
2022/01/16 06:09:38;;;;;;;;;42.25;34.25;;;;;3.89;100.00;102067.94;5061254;28;11618;-72
2022/01/16 06:12:05;;;;;;;;;35.25;32.75;;;;;3.90;100.00;102064.28;5059523;28;11545;-69
2022/01/16 06:14:31;;;;;;;;;42.25;36.50;;;;;3.91;100.00;102063.31;5061837;28;11648;-68
2022/01/16 06:16:58;;;;;;;;;36.25;34.00;;;;;3.93;100.00;102066.72;5059611;28;11675;-69
2022/01/16 06:19:24;;;;;;;;;40.25;36.50;;;;;3.94;100.00;102070.28;5060060;28;11694;-72
2022/01/16 06:21:51;;;;;;;;;50.25;41.25;;;;;3.94;100.00;102072.94;5058964;28;11690;-69
2022/01/16 06:24:17;;;;;;;;;43.50;33.75;;;;;3.95;100.00;102072.81;5060462;28;11550;-69
2022/01/16 06:26:44;;;;;;;;;36.50;30.00;;;;;3.96;100.00;102074.53;5058974;28;11554;-69
2022/01/16 06:29:10;;;;;;;;;50.75;40.75;;;;;3.97;100.00;102073.59;5075397;28;11667;-68
2022/01/16 06:31:37;;;;;;;;;52.50;40.75;;;;;4.02;100.00;102081.28;5058552;28;11630;-70
2022/01/16 06:34:06;;;;;;;;;39.00;31.25;;;;;4.05;100.00;102072.16;5059793;28;11693;-68
2022/01/16 06:36:34;;;;;;;;;42.25;37.00;;;;;4.05;100.00;102074.84;5057558;28;12245;-69
2022/01/16 06:39:06;;;;;;;;;49.50;40.50;;;;;4.05;100.00;102077.50;5058819;28;11563;-68
2022/01/16 06:41:34;;;;;;;;;53.25;40.00;;;;;4.06;100.00;102081.91;5059310;28;12395;-69
2022/01/16 06:44:01;;;;;;;;;35.25;33.00;;;;;4.11;100.00;102082.41;5059065;28;11636;-68
2022/01/16 06:46:29;;;;;;;;;50.00;40.50;;;;;4.12;100.00;102087.63;5073455;28;11584;-69
2022/01/16 06:48:56;;;;;;;;;34.50;30.50;;;;;4.16;100.00;102093.63;5059300;28;11562;-69
2022/01/16 06:51:24;;;;;;;;;33.25;32.75;;;;;4.17;100.00;102098.00;5061516;28;11630;-70
2022/01/16 06:53:57;;;;;;;;;32.50;30.25;;;;;4.19;100.00;102104.94;5057571;28;11645;-69
2022/01/16 06:56:24;;;;;;;;;30.75;29.50;;;;;4.21;100.00;102115.56;5061334;28;11629;-69
2022/01/16 06:58:51;;;;;;;;;27.50;24.50;;;;;4.24;100.00;102112.66;5058971;28;11496;-69
2022/01/16 07:01:37;;;;;;;;;32.75;29.50;;;;;4.26;100.00;102111.59;5059264;28;11479;-69
2022/01/16 07:04:04;;;;;;;;;24.50;20.50;;;;;4.31;100.00;102119.25;5060117;28;11571;-71
2022/01/16 07:06:30;;;;;;;;;32.75;28.00;;;;;4.30;100.00;102121.09;5058431;28;11700;-69
2022/01/16 07:08:56;;;;;;;;;35.50;28.50;;;;;4.34;100.00;102129.75;5062537;28;11753;-69
2022/01/16 07:11:23;;;;;;;;;32.25;27.75;;;;;4.36;100.00;102121.59;5057867;28;11537;-69
2022/01/16 07:13:49;;;;;;;;;19.75;16.50;;;;;4.42;100.00;102130.00;5073658;28;12351;-69
2022/01/16 07:16:16;;;;;;;;;32.00;23.00;;;;;4.42;100.00;102138.06;5058993;28;11511;-71
2022/01/16 07:18:42;;;;;;;;;25.25;23.75;;;;;4.41;100.00;102136.34;5072863;28;11489;-69
2022/01/16 07:21:13;;;;;;;;;24.50;21.00;;;;;4.48;100.00;102145.66;5058866;28;11531;-69
2022/01/16 07:23:49;;;;;;;;;19.50;16.00;;;;;4.51;100.00;102148.09;5057873;28;11474;-69
2022/01/16 07:26:17;;;;;;;;;21.00;18.00;;;;;4.50;100.00;102149.06;5057996;28;11555;-69
2022/01/16 07:28:45;;;;;;;;;15.00;15.00;;;;;4.52;100.00;102157.84;5061561;28;11602;-69
2022/01/16 07:31:12;;;;;;;;;11.50;10.50;;;;;4.54;100.00;102150.53;5058101;28;11509;-68
2022/01/16 07:33:38;;;;;;;;;18.75;15.50;;;;;4.60;99.33;102150.06;5058970;28;11470;-71
2022/01/16 07:36:05;;;;;;;;;17.25;14.75;;;;;4.66;97.96;102151.41;5062738;28;11491;-71
2022/01/16 07:38:32;;;;;;;;;20.00;16.50;;;;;4.72;97.02;102153.63;5059459;28;11598;-71
2022/01/16 07:40:58;;;;;;;;;12.75;12.50;;;;;4.78;95.81;102154.97;5058167;28;11594;-71
2022/01/16 07:43:25;;;;;;;;;13.75;12.50;;;;;4.87;93.90;102167.66;5058558;28;12337;-71
2022/01/16 07:45:51;;;;;;;;;13.25;10.25;;;;;4.97;92.91;102162.47;5071563;28;11480;-71
2022/01/16 07:48:18;;;;;;;;;12.50;12.00;;;;;5.06;92.33;102157.22;5078989;28;11556;-71
2022/01/16 07:50:44;;;;;;;;;7.00;7.00;;;;;5.10;91.22;102165.88;5053405;28;12336;-71
2022/01/16 07:53:11;;;;;;;;;8.00;8.00;;;;;5.15;91.06;102172.59;5057393;28;11198;-71
2022/01/16 07:55:37;;;;;;;;;8.50;8.50;;;;;5.24;90.54;102161.13;5063568;28;11425;-71
2022/01/16 07:58:04;;;;;;;;;6.75;6.00;;;;;5.31;90.16;102174.91;5062411;28;11555;-71
2022/01/16 08:00:32;;;;;;;;;5.00;5.00;;;;;5.31;90.27;102188.34;5058401;28;11188;-72
2022/01/16 08:02:59;;;;;;;;;10.00;6.00;;;;;5.33;90.43;102190.91;5070124;28;11129;-71
2022/01/16 08:05:26;;;;;;;;;8.00;6.00;;;;;5.37;90.37;102185.16;5057842;28;11466;-71
2022/01/16 08:07:52;;;;;;;;;7.00;7.00;;;;;5.40;90.23;102190.28;5057884;28;11428;-71
2022/01/16 08:10:19;;;;;;;;;7.50;6.00;;;;;5.43;90.62;102194.56;5057066;28;11434;-71
2022/01/16 08:12:45;;;;;;;;;6.00;6.00;;;;;5.48;90.25;102190.53;5058756;28;11131;-71
2022/01/16 08:15:12;;;;;;;;;11.00;10.75;;;;;5.51;90.35;102186.75;5072876;28;11453;-71
2022/01/16 08:17:38;;;;;;;;;11.00;7.25;;;;;5.53;90.23;102188.34;5057867;28;11475;-72
2022/01/16 08:20:08;;;;;;;;;8.50;8.00;;;;;5.57;90.13;102183.56;5058137;28;11232;-71
2022/01/16 08:22:36;;;;;;;;;9.50;9.00;;;;;5.61;89.94;102182.34;5057723;28;11541;-71
2022/01/16 08:25:04;;;;;;;;;8.00;7.75;;;;;5.64;89.53;102190.16;5055835;28;11524;-71
2022/01/16 08:27:31;;;;;;;;;11.00;11.00;;;;;5.64;89.65;102184.78;5058187;28;11444;-71
2022/01/16 08:30:04;;;;;;;;;9.50;8.50;;;;;5.69;89.42;102185.25;5062574;28;11225;-71
2022/01/16 08:32:31;;;;;;;;;10.50;9.00;;;;;5.72;88.66;102179.66;5060382;28;11452;-71
2022/01/16 08:34:57;;;;;;;;;8.50;8.00;;;;;5.77;88.50;102174.75;5058312;28;11178;-71
2022/01/16 08:37:24;;;;;;;;;12.75;8.75;;;;;5.81;88.45;102184.28;5058430;28;11120;-70
2022/01/16 08:39:50;;;;;;;;;6.00;6.00;;;;;5.85;88.59;102190.25;5056499;28;11267;-71
2022/01/16 08:42:17;;;;;;;;;8.50;7.00;;;;;5.90;88.27;102189.91;5056961;28;11310;-70
2022/01/16 08:44:43;;;;;;;;;13.00;9.00;;;;;5.97;88.35;102197.34;5059947;28;11054;-71
2022/01/16 08:47:10;;;;;;;;;9.50;9.00;;;;;5.96;88.62;102198.34;5059528;28;11220;-71
2022/01/16 08:49:37;;;;;;;;;12.50;10.00;;;;;5.99;89.12;102198.06;5059597;28;11068;-71
2022/01/16 08:52:05;;;;;;;;;7.00;7.00;;;;;6.02;89.27;102197.81;5063923;28;11250;-72
2022/01/16 08:54:33;;;;;;;;;6.00;6.00;;;;;6.03;89.36;102202.22;5063347;28;11415;-71
2022/01/16 08:57:01;;;;;;;;;9.00;8.75;;;;;6.04;89.58;102203.06;5060364;28;11032;-71
2022/01/16 08:59:28;;;;;;;;;7.00;6.00;;;;;6.05;89.83;102204.78;5059627;28;11760;-71
2022/01/16 09:01:55;;;;;;;;;10.50;7.50;;;;;6.06;89.93;102201.97;5061323;28;12047;-72
2022/01/16 09:04:21;;;;;;;;;14.00;12.50;;;;;6.09;90.42;102211.59;5062710;28;11145;-71
2022/01/16 09:06:48;;;;;;;;;9.25;7.75;;;;;6.10;90.49;102213.31;5059743;28;11161;-72
2022/01/16 09:09:14;;;;;;;;;7.00;7.00;;;;;6.09;90.89;102215.16;5060170;28;10976;-71
2022/01/16 09:11:41;;;;;;;;;8.75;8.75;;;;;6.12;90.84;102217.59;5061123;28;10853;-72
2022/01/16 09:14:08;;;;;;;;;7.00;7.00;;;;;6.14;91.18;102223.69;5059733;28;11287;-71
2022/01/16 09:16:34;;;;;;;;;9.75;9.75;;;;;6.17;91.41;102223.44;5064661;28;10975;-72
2022/01/16 09:19:00;;;;;;;;;10.50;10.50;;;;;6.18;92.07;102230.50;5059684;28;11203;-72
2022/01/16 09:21:27;;;;;;;;;12.00;11.00;;;;;6.21;92.33;102225.91;5062312;28;11156;-72
2022/01/16 09:23:53;;;;;;;;;10.00;8.75;;;;;6.24;92.87;102229.19;5056827;28;11020;-72
2022/01/16 09:26:20;;;;;;;;;20.00;15.25;;;;;6.28;92.98;102227.94;5058402;28;11101;-71
2022/01/16 09:28:46;;;;;;;;;8.00;6.50;;;;;6.28;92.98;102244.06;5061253;28;11402;-71
2022/01/16 09:31:13;;;;;;;;;7.75;7.25;;;;;6.28;93.56;102241.38;5060376;28;11112;-72
2022/01/16 09:33:40;;;;;;;;;18.00;15.00;;;;;6.29;93.65;102231.47;5046459;28;11823;-71
2022/01/16 09:36:08;;;;;;;;;12.25;11.50;;;;;6.29;93.77;102247.63;5058281;28;11331;-71
2022/01/16 09:38:37;;;;;;;;;18.25;14.00;;;;;6.30;93.57;102243.94;5063523;28;11267;-71
2022/01/16 09:41:06;;;;;;;;;18.50;15.00;;;;;6.33;93.27;102246.38;5061979;28;12072;-71
2022/01/16 09:43:34;;;;;;;;;18.25;15.25;;;;;6.34;93.33;102251.63;5061975;28;11496;-71
2022/01/16 09:46:02;;;;;;;;;19.25;18.75;;;;;6.34;93.23;102248.94;5060614;28;11546;-71
2022/01/16 09:48:28;;;;;;;;;13.25;12.25;;;;;6.59;93.52;102249.59;5064671;28;11502;-71
2022/01/16 09:50:55;;;;;;;;;10.50;10.50;;;;;6.49;92.18;102249.50;5075036;28;11147;-72
2022/01/16 09:53:23;;;;;;;;;11.75;9.50;;;;;6.84;94.71;102248.38;5058714;28;11173;-72
2022/01/16 09:55:49;;;;;;;;;12.50;11.75;;;;;6.58;90.64;102261.34;5073652;28;10987;-71
2022/01/16 09:58:16;;;;;;;;;18.75;15.00;;;;;6.53;90.73;102259.03;5063793;28;11114;-72
2022/01/16 10:00:43;;;;;;;;;11.25;11.25;;;;;6.51;90.69;102263.69;5059915;28;11215;-72
2022/01/16 10:03:10;;;;;;;;;11.75;9.75;;;;;6.50;90.49;102280.81;5060526;28;11277;-71
2022/01/16 10:05:39;;;;;;;;;20.25;14.25;;;;;6.50;90.27;102270.06;5064120;28;10967;-72
2022/01/16 10:08:08;;;;;;;;;17.25;15.25;;;;;6.53;89.89;102275.19;5061314;28;11471;-72
2022/01/16 10:10:38;;;;;;;;;18.00;14.50;;;;;6.52;89.62;102281.53;5058737;28;11473;-72
2022/01/16 10:13:24;;;;;;;;;13.50;13.50;;;;;6.56;89.58;102279.44;5059147;28;11294;-71
2022/01/16 10:15:52;;;;;;;;;15.25;12.00;;;;;6.54;89.36;102284.09;5061330;28;11149;-72
2022/01/16 10:18:38;;;;;;;;;11.50;11.50;;;;;6.54;89.62;102287.66;5077327;28;11298;-72
2022/01/16 10:21:05;;;;;;;;;13.50;13.50;;;;;6.57;89.21;102298.16;5060461;28;11201;-71
2022/01/16 10:23:39;;;;;;;;;11.00;9.50;;;;;6.57;88.81;102287.38;5060312;28;11134;-71
2022/01/16 10:26:17;;;;;;;;;12.25;12.25;;;;;6.61;88.60;102296.06;5057268;28;10999;-72
2022/01/16 10:28:44;;;;;;;;;15.00;11.00;;;;;6.60;88.49;102283.59;5061131;28;11288;-72
2022/01/16 10:31:22;;;;;;;;;10.75;10.75;;;;;6.62;88.44;102292.38;5058307;28;11067;-71
2022/01/16 10:33:50;;;;;;;;;10.50;9.50;;;;;6.63;88.41;102291.41;5058838;28;11198;-71
2022/01/16 10:36:35;;;;;;;;;9.00;7.50;;;;;6.60;88.96;102289.81;5057970;28;11163;-71
2022/01/16 10:39:10;;;;;;;;;10.50;9.00;;;;;6.58;88.92;102283.72;5060239;28;11064;-71
2022/01/16 10:41:37;;;;;;;;;19.00;12.50;;;;;6.60;88.76;102286.28;5059648;28;11239;-73
2022/01/16 10:44:24;;;;;;;;;11.25;11.25;;;;;6.63;88.62;102291.41;5057709;28;11176;-72
2022/01/16 10:46:50;;;;;;;;;11.00;10.00;;;;;6.62;87.99;102287.84;5058746;28;11170;-73
2022/01/16 10:49:19;;;;;;;;;11.00;9.00;;;;;6.65;88.30;102290.28;5059255;28;11200;-72
2022/01/16 10:52:05;;;;;;;;;8.50;7.50;;;;;6.64;87.99;102285.88;5058685;28;10986;-72
2022/01/16 10:54:38;;;;;;;;;8.00;8.00;;;;;6.66;87.97;102291.13;5061667;28;11093;-71
2022/01/16 10:57:21;;;;;;;;;8.25;8.00;;;;;6.68;87.40;102295.41;5058594;28;11139;-72
2022/01/16 10:59:47;;;;;;;;;11.75;11.50;;;;;6.72;86.75;102290.66;5059774;28;11053;-71
2022/01/16 11:02:15;;;;;;;;;6.00;6.00;;;;;6.74;86.88;102291.38;5062510;28;11195;-71
2022/01/16 11:04:41;;;;;;;;;10.75;6.75;;;;;6.74;86.54;102292.22;5058484;28;11041;-72
2022/01/16 11:07:08;;;;;;;;;8.50;8.50;;;;;6.79;85.75;102291.84;5056391;28;10903;-71
2022/01/16 11:09:34;;;;;;;;;11.00;10.75;;;;;6.79;86.11;102294.53;5058247;28;10998;-71
2022/01/16 11:12:01;;;;;;;;;11.50;10.50;;;;;6.84;85.69;102289.59;5056245;28;10935;-71
2022/01/16 11:14:29;;;;;;;;;10.25;7.75;;;;;6.88;85.23;102284.81;5058679;28;11058;-71
2022/01/16 11:16:56;;;;;;;;;8.50;8.25;;;;;6.91;85.35;102287.25;5056466;28;10951;-71
2022/01/16 11:19:24;;;;;;;;;9.75;8.25;;;;;6.92;85.07;102294.34;5058509;28;12184;-71
2022/01/16 11:21:57;;;;;;;;;9.75;9.25;;;;;6.94;85.51;102297.75;5058581;28;11049;-71
2022/01/16 11:26:51;;;;;;;;;16.75;14.75;;;;;6.87;89.21;102299.25;5058681;28;11187;-71
2022/01/16 11:29:18;;;;;;;;;30.00;23.25;;;;;6.78;90.83;102299.06;5058771;28;11023;-71
2022/01/16 11:31:49;;;;;;;;;27.50;25.00;;;;;6.76;91.88;102302.88;5074097;28;11495;-71
2022/01/16 11:34:15;;;;;;;;;23.50;21.00;;;;;6.72;92.72;102306.78;5058644;28;11513;-71
2022/01/16 11:36:42;;;;;;;;;29.00;26.25;;;;;6.66;93.67;102310.81;5059266;28;11148;-73
2022/01/16 11:39:11;;;;;;;;;34.25;30.25;;;;;6.66;94.50;102313.50;5056593;28;11550;-71
2022/01/16 11:41:51;;;;;;;;;32.75;27.00;;;;;6.65;94.69;102309.13;5057616;28;11509;-70
2022/01/16 11:44:24;;;;;;;;;33.00;25.25;;;;;6.66;95.19;102308.13;5056601;28;11568;-73
2022/01/16 11:46:53;;;;;;;;;39.25;29.75;;;;;6.66;95.40;102296.50;5059113;28;11515;-71
2022/01/16 11:49:32;;;;;;;;;29.00;26.75;;;;;6.71;95.57;102305.09;5056425;28;12386;-71
2022/01/16 11:52:13;;;;;;;;;31.50;30.75;;;;;6.73;95.48;102295.03;5058607;28;11517;-71
2022/01/16 11:54:44;;;;;;;;;37.00;32.75;;;;;6.78;95.69;102300.91;5056999;28;11482;-70
2022/01/16 11:57:28;;;;;;;;;36.00;29.25;;;;;6.76;95.83;102305.56;5058921;28;11598;-70
2022/01/16 12:00:09;;;;;;;;;29.50;23.75;;;;;6.78;95.99;102311.66;5060577;28;11561;-72
2022/01/16 12:02:48;;;;;;;;;35.25;27.75;;;;;7.14;98.15;102301.44;5058624;28;11622;-70